createdAt,value
2023-04-23T00:04:52.753Z,9.36
2023-04-23T00:09:57.659Z,9.60
2023-04-23T00:15:00.457Z,9.74
2023-04-23T00:20:03.131Z,9.84
2023-04-23T00:25:05.789Z,9.94
2023-04-23T00:30:09.254Z,9.99
2023-04-23T00:35:11.060Z,9.99
2023-04-23T00:40:13.736Z,9.97
2023-04-23T00:45:16.916Z,9.97
2023-04-23T00:50:20.827Z,9.95
2023-04-23T00:55:23.096Z,9.91
2023-04-23T01:00:25.310Z,9.86
2023-04-23T01:05:27.953Z,9.81
2023-04-23T01:10:32.813Z,9.75
2023-04-23T01:15:34.875Z,9.67
2023-04-23T01:20:38.161Z,9.61
2023-04-23T01:25:40.994Z,9.55
2023-04-23T01:30:44.369Z,9.50
2023-04-23T01:35:47.624Z,9.48
2023-04-23T01:40:49.731Z,9.45
2023-04-23T01:45:52.936Z,9.44
2023-04-23T01:50:55.272Z,9.44
2023-04-23T01:56:00.868Z,9.45
2023-04-23T02:01:02.943Z,9.44
2023-04-23T02:06:05.356Z,9.41
2023-04-23T02:11:07.409Z,9.39
2023-04-23T02:16:09.410Z,9.34
2023-04-23T02:21:13.453Z,9.29
2023-04-23T02:26:15.929Z,9.22
2023-04-23T02:31:18.843Z,9.14
2023-04-23T02:36:20.754Z,9.07
2023-04-23T02:41:22.831Z,9.01
2023-04-23T02:46:24.633Z,8.90
2023-04-23T02:51:27.484Z,8.78
2023-04-23T02:56:30.826Z,8.66
2023-04-23T03:01:32.938Z,8.55
2023-04-23T03:06:35.911Z,8.47
2023-04-23T03:11:38.529Z,8.41
2023-04-23T03:16:41.207Z,8.33
2023-04-23T03:21:43.749Z,8.28
2023-04-23T03:26:45.703Z,8.23
2023-04-23T03:31:47.628Z,8.18
2023-04-23T03:36:50.903Z,8.15
2023-04-23T03:41:53.577Z,8.14
2023-04-23T03:46:59.046Z,8.12
2023-04-23T03:52:01.377Z,8.10
2023-04-23T03:57:04.845Z,8.09
2023-04-23T04:02:12.138Z,8.10
2023-04-23T04:07:14.286Z,8.13
2023-04-23T04:12:16.758Z,8.18
2023-04-23T04:17:18.594Z,8.26
2023-04-23T04:22:20.927Z,8.35
2023-04-23T04:27:22.878Z,8.45
2023-04-23T04:32:24.819Z,8.56
2023-04-23T04:37:26.587Z,8.71
2023-04-23T04:42:28.889Z,8.87
2023-04-23T04:47:31.367Z,9.05
2023-04-23T04:52:33.524Z,9.24
2023-04-23T04:57:36.961Z,9.43
2023-04-23T05:02:39.252Z,9.64
2023-04-23T05:07:41.159Z,9.87
2023-04-23T05:12:43.772Z,10.07
2023-04-23T05:17:45.587Z,10.28
2023-04-23T05:22:48.639Z,10.49
2023-04-23T05:27:51.270Z,10.72
2023-04-23T05:32:53.421Z,10.95
2023-04-23T05:37:55.347Z,11.19
2023-04-23T05:42:58.705Z,11.46
2023-04-23T05:48:00.606Z,11.74
2023-04-23T05:53:03.081Z,12.04
2023-04-23T05:58:05.944Z,12.37
2023-04-23T06:03:08.218Z,12.72
2023-04-23T06:08:10.399Z,13.11
2023-04-23T06:13:12.534Z,13.53
2023-04-23T06:18:14.487Z,13.90
2023-04-23T06:23:17.610Z,13.88
2023-04-23T06:28:19.585Z,13.87
2023-04-23T06:33:50.974Z,13.98
2023-04-23T06:38:52.826Z,14.13
2023-04-23T06:43:55.277Z,14.32
2023-04-23T06:49:06.997Z,14.52
2023-04-23T06:54:09.069Z,14.70
2023-04-23T06:59:11.880Z,14.90
2023-04-23T07:04:22.230Z,15.12
2023-04-23T07:09:24.501Z,15.33
2023-04-23T07:14:26.665Z,15.54
2023-04-23T07:19:28.471Z,15.80
2023-04-23T07:24:30.942Z,16.05
2023-04-23T07:29:34.292Z,16.31
2023-04-23T07:34:39.480Z,16.58
2023-04-23T07:39:44.025Z,16.82
2023-04-23T07:44:46.484Z,17.08
2023-04-23T07:49:48.360Z,17.30
2023-04-23T07:54:50.462Z,17.51
2023-04-23T07:59:52.953Z,17.71
2023-04-23T08:04:55.489Z,17.90
2023-04-23T08:10:02.866Z,18.13
2023-04-23T08:15:06.020Z,18.36
2023-04-23T08:20:14.058Z,18.52
2023-04-23T08:25:16.569Z,18.66
2023-04-23T08:30:18.518Z,18.84
2023-04-23T08:35:20.705Z,19.01
2023-04-23T08:40:22.952Z,19.21
2023-04-23T08:45:26.273Z,19.43
2023-04-23T08:50:29.339Z,19.66
2023-04-23T08:55:33.852Z,19.87
2023-04-23T09:00:36.112Z,20.04
2023-04-23T09:05:38.186Z,20.15
2023-04-23T09:10:42.258Z,20.26
2023-04-23T09:15:44.535Z,20.40
2023-04-23T09:20:47.042Z,20.57
2023-04-23T09:25:50.094Z,20.71
2023-04-23T09:30:53.251Z,20.80
2023-04-23T09:35:55.471Z,20.86
2023-04-23T09:40:57.556Z,20.92
2023-04-23T09:45:59.692Z,21.03
2023-04-23T09:51:02.288Z,21.24
2023-04-23T09:56:04.454Z,21.44
2023-04-23T10:01:09.013Z,21.63
2023-04-23T10:06:36.893Z,21.86
2023-04-23T10:11:42.084Z,22.17
2023-04-23T10:16:49.283Z,22.36
2023-04-23T10:22:18.411Z,22.61
2023-04-23T10:27:33.337Z,22.72
2023-04-23T10:32:42.389Z,22.70
2023-04-23T10:37:48.451Z,22.80
2023-04-23T10:42:52.225Z,22.90
2023-04-23T10:47:57.378Z,22.90
2023-04-23T10:52:59.933Z,22.92
2023-04-23T10:58:04.712Z,22.86
2023-04-23T11:03:30.553Z,22.77
2023-04-23T11:08:35.422Z,22.72
2023-04-23T11:13:52.221Z,22.79
2023-04-23T11:19:05.277Z,22.98
2023-04-23T11:24:07.870Z,23.20
2023-04-23T11:29:14.535Z,23.38
2023-04-23T11:34:17.810Z,23.17
2023-04-23T11:39:27.072Z,22.93
2023-04-23T11:44:30.772Z,23.02
2023-04-23T11:49:33.085Z,23.05
2023-04-23T11:54:35.571Z,23.09
2023-04-23T11:59:38.111Z,23.13
2023-04-23T12:04:41.481Z,23.27
2023-04-23T12:09:46.211Z,23.40
2023-04-23T12:14:48.102Z,23.44
2023-04-23T12:19:51.142Z,23.30
2023-04-23T12:24:54.547Z,23.16
2023-04-23T12:30:04.214Z,23.33
2023-04-23T12:35:10.181Z,23.53
2023-04-23T12:40:12.841Z,23.66
2023-04-23T12:45:14.640Z,23.61
2023-04-23T12:50:17.024Z,23.65
2023-04-23T12:55:18.917Z,23.86
2023-04-23T13:00:21.148Z,23.88
2023-04-23T13:05:24.142Z,23.81
2023-04-23T13:10:26.452Z,23.88
2023-04-23T13:15:28.326Z,24.00
2023-04-23T13:20:30.912Z,23.96
2023-04-23T13:25:32.814Z,23.97
2023-04-23T13:30:35.157Z,24.08
2023-04-23T13:35:38.016Z,24.15
2023-04-23T13:40:40.051Z,24.15
2023-04-23T13:45:41.820Z,24.02
2023-04-23T13:50:44.766Z,23.99
2023-04-23T13:55:46.595Z,24.07
2023-04-23T14:00:48.718Z,23.94
2023-04-23T14:05:51.140Z,23.72
2023-04-23T14:10:53.168Z,23.59
2023-04-23T14:15:55.033Z,23.45
2023-04-23T14:20:57.294Z,23.26
2023-04-23T14:26:04.927Z,23.17
2023-04-23T14:31:08.000Z,23.20
2023-04-23T14:36:09.912Z,23.32
2023-04-23T14:41:12.061Z,23.43
2023-04-23T14:46:13.798Z,23.61
2023-04-23T14:51:16.165Z,23.77
2023-04-23T14:56:18.226Z,23.82
2023-04-23T15:01:20.440Z,23.78
2023-04-23T15:06:22.927Z,23.54
2023-04-23T15:11:25.114Z,23.30
2023-04-23T15:16:48.059Z,23.14
2023-04-23T15:21:51.161Z,23.13
2023-04-23T15:26:55.225Z,23.07
2023-04-23T15:31:58.940Z,22.98
2023-04-23T15:37:01.101Z,23.02
2023-04-23T15:42:03.486Z,23.06
2023-04-23T15:47:05.330Z,23.03
2023-04-23T15:52:07.387Z,22.92
2023-04-23T15:57:09.124Z,22.80
2023-04-23T16:02:11.273Z,22.82
2023-04-23T16:07:13.834Z,22.87
2023-04-23T16:12:16.617Z,22.79
2023-04-23T16:17:18.583Z,22.69
2023-04-23T16:22:20.722Z,22.58
2023-04-23T16:27:23.450Z,22.36
2023-04-23T16:32:26.036Z,22.12
2023-04-23T16:37:28.055Z,21.93
2023-04-23T16:42:29.988Z,21.82
2023-04-23T16:47:31.776Z,21.67
2023-04-23T16:52:33.849Z,21.49
2023-04-23T16:57:36.903Z,21.33
2023-04-23T17:02:43.697Z,21.19
2023-04-23T17:07:46.519Z,21.00
2023-04-23T17:12:53.961Z,20.77
2023-04-23T17:17:56.122Z,20.55
2023-04-23T17:22:58.523Z,20.33
2023-04-23T17:28:00.504Z,20.10
2023-04-23T17:33:02.768Z,19.87
2023-04-23T17:38:04.686Z,19.62
2023-04-23T17:43:07.130Z,19.35
2023-04-23T17:48:09.466Z,19.07
2023-04-23T17:53:11.808Z,18.85
2023-04-23T17:58:14.076Z,18.68
2023-04-23T18:03:18.706Z,18.52
2023-04-23T18:08:22.055Z,18.36
2023-04-23T18:13:24.551Z,18.19
2023-04-23T18:18:26.796Z,18.04
2023-04-23T18:23:29.301Z,17.86
2023-04-23T18:28:32.933Z,17.67
2023-04-23T18:33:49.293Z,17.48
2023-04-23T18:38:51.916Z,17.30
2023-04-23T18:43:54.168Z,17.13
2023-04-23T18:49:05.114Z,16.97
2023-04-23T18:54:07.264Z,16.76
2023-04-23T18:59:09.573Z,16.54
2023-04-23T19:04:11.766Z,16.31
2023-04-23T19:09:14.754Z,16.13
2023-04-23T19:14:19.051Z,16.00
2023-04-23T19:19:21.029Z,15.84
2023-04-23T19:24:23.112Z,15.66
2023-04-23T19:29:25.240Z,15.51
2023-04-23T19:34:27.859Z,15.36
2023-04-23T19:39:29.825Z,15.20
2023-04-23T19:44:31.832Z,15.04
2023-04-23T19:49:33.633Z,14.85
2023-04-23T19:54:35.789Z,14.68
2023-04-23T19:59:37.722Z,14.51
2023-04-23T20:04:40.074Z,14.35
2023-04-23T20:09:42.691Z,14.20
2023-04-23T20:14:45.013Z,14.05
2023-04-23T20:19:46.779Z,13.90
2023-04-23T20:24:48.971Z,13.76
2023-04-23T20:29:51.666Z,13.74
2023-04-23T20:34:54.757Z,14.05
2023-04-23T20:39:56.575Z,14.27
2023-04-23T20:44:59.130Z,14.37
2023-04-23T20:50:00.966Z,14.27
2023-04-23T20:55:03.558Z,13.94
2023-04-23T21:00:11.623Z,13.79
2023-04-23T21:05:13.855Z,14.01
2023-04-23T21:10:21.992Z,14.12
2023-04-23T21:15:44.660Z,14.17
2023-04-23T21:20:46.608Z,14.17
2023-04-23T21:25:48.687Z,14.16
2023-04-23T21:30:52.643Z,14.12
2023-04-23T21:35:54.924Z,14.05
2023-04-23T21:40:59.495Z,13.96
2023-04-23T21:46:02.146Z,13.86
2023-04-23T21:51:25.210Z,13.74
2023-04-23T21:56:27.258Z,13.64
2023-04-23T22:01:29.175Z,13.57
2023-04-23T22:06:31.287Z,13.55
2023-04-23T22:11:34.713Z,13.51
2023-04-23T22:16:37.347Z,13.48
2023-04-23T22:21:39.288Z,13.46
2023-04-23T22:26:41.277Z,13.45
2023-04-23T22:31:43.173Z,13.44
2023-04-23T22:36:45.709Z,13.43
2023-04-23T22:41:47.720Z,13.42
2023-04-23T22:46:50.435Z,13.40
2023-04-23T22:51:52.487Z,13.34
2023-04-23T22:56:54.481Z,13.29
2023-04-23T23:01:56.397Z,13.26
2023-04-23T23:06:58.570Z,13.21
2023-04-23T23:12:20.813Z,13.15
2023-04-23T23:17:24.801Z,13.13
2023-04-23T23:22:27.232Z,13.16
2023-04-23T23:27:29.592Z,13.19
2023-04-23T23:32:33.317Z,13.23
2023-04-23T23:37:36.160Z,13.24
2023-04-23T23:42:43.692Z,13.24
2023-04-23T23:47:48.331Z,13.15
2023-04-23T23:52:50.500Z,13.10
2023-04-23T23:57:52.498Z,13.06
